General Aviation Weather

Text Reports

Enter one or more of the following location identifiers separated by a space:

Zip Code, Four-Character ICAO or Three-Character IATA airport codes.

METAR - Aviation Routine Weather Report
PATL - Tatalina, Alaska
Updated at 4:55 AM GMT on September 23, 2014 (8:55 PM AKDT):
METAR PATL 230455Z AUTO 28003KT 10SM CLR 06/M04 A2983 RMK AO2 SLP113 T00601036 $
TAF - Terminal Area Forecast
PATL - Tatalina, Alaska
Updated at 4:55 AM GMT on September 23, 2014 (8:55 PM AKDT):
No TAF is currently available for this location.
Decoded:
No decoded TAF is available.
PIREP - Pilot Weather Report
PATL - Tatalina, Alaska
Updated at 4:55 AM GMT on September 23, 2014 (8:55 PM AKDT):
No PIREP is currently available for this location.
AIRMET - Airmens Meteorological Information
PATL - Tatalina, Alaska
Updated at 4:55 AM GMT on September 23, 2014 (8:55 PM AKDT):
No AIRMET is currently available for this location.
SIGMET - Significant Meteorological Information
PATL - Tatalina, Alaska
Updated at 4:55 AM GMT on September 23, 2014 (8:55 PM AKDT):
No SIGMET is currently available for this location.
NOTAM - Notice to Airmen
PATL - Tatalina, Alaska
Updated at 4:55 AM GMT on September 23, 2014 (8:55 PM AKDT):
No NOTAM is currently available for this location.
Forecast Area
PATL - Tatalina, Alaska
Updated at 4:55 AM GMT on September 23, 2014 (8:55 PM AKDT):
No NOTAM is currently available for this location.
Aviation Weather Maps